Time;durP1;ratioP1;P1;durP2;ratioP2;P2;SDS_P1;SDS_P2;PMS_P1;PMS_P2;Temp;Humidity;BMP_temperature;BMP_pressure;BME280_temperature;BME280_humidity;BME280_pressure;Samples;Min_cycle;Max_cycle;Signal;HPM_P1;HPM_P2
2022/08/12 00:44:25;;;;;;;11.25;10.23;;;;;;;26.21;53.58;101305.70;1679864;84;21026;-53
2022/08/12 00:47:00;;;;;;;13.32;10.40;;;;;;;26.20;53.73;101306.65;1692254;83;21062;-50
2022/08/12 00:49:29;;;;;;;10.50;9.58;;;;;;;26.18;53.36;101316.11;1684676;83;21007;-54
2022/08/12 00:52:08;;;;;;;11.12;9.90;;;;;;;26.20;53.29;101323.98;1689502;83;21534;-50
2022/08/12 00:54:55;;;;;;;11.48;10.13;;;;;;;26.20;53.29;101323.98;1729134;81;21067;-50
2022/08/12 00:57:26;;;;;;;11.25;9.53;;;;;;;26.17;53.33;101328.24;1732016;81;21039;-53
2022/08/12 00:59:57;;;;;;;12.07;9.83;;;;;;;26.14;53.37;101325.80;1681080;84;21078;-53
2022/08/12 01:02:30;;;;;;;11.18;10.10;;;;;;;26.13;53.14;101326.78;1666838;85;21043;-52
2022/08/12 01:13:20;;;;;;;9.90;8.80;;;;;;;26.03;52.75;101307.09;1624862;87;21505;-51
2022/08/12 01:15:54;;;;;;;10.75;9.65;;;;;;;26.03;52.75;101307.09;1630030;87;21024;-53
2022/08/12 01:18:24;;;;;;;10.13;9.13;;;;;;;25.97;53.39;101307.54;1629916;87;21025;-50
2022/08/12 01:21:48;;;;;;;12.68;10.55;;;;;;;25.97;53.39;101307.54;1629061;87;21000;-49
2022/08/12 01:24:55;;;;;;;10.80;9.80;;;;;;;25.95;53.31;101312.14;1636311;87;21035;-50
2022/08/12 01:27:22;;;;;;;10.58;9.48;;;;;;;25.92;53.34;101301.25;1592295;89;21081;-51
2022/08/12 01:29:52;;;;;;;10.23;8.83;;;;;;;25.94;53.93;101305.13;1587660;90;21139;-50
2022/08/12 01:32:20;;;;;;;10.78;9.65;;;;;;;25.89;53.68;101301.95;1586819;89;21065;-51
2022/08/12 01:35:05;;;;;;;14.07;9.68;;;;;;;25.89;53.68;101301.95;1587710;90;21101;-53
2022/08/12 01:37:56;;;;;;;10.10;9.00;;;;;;;25.86;53.93;101299.06;1558684;91;21612;-52
2022/08/12 01:40:29;;;;;;;10.43;9.43;;;;;;;25.82;54.33;101294.42;1562281;91;21093;-51
2022/08/12 01:42:59;;;;;;;10.35;9.35;;;;;;;25.82;54.48;101294.42;1558557;91;21134;-53
2022/08/12 01:45:28;;;;;;;10.08;9.18;;;;;;;25.82;54.48;101294.42;1556093;91;21086;-50
2022/08/12 01:48:15;;;;;;;10.78;9.43;;;;;;;25.82;54.56;101289.09;1560440;91;21058;-50
2022/08/12 01:51:06;;;;;;;10.82;9.73;;;;;;;25.86;54.99;101288.88;1556035;91;21051;-50
2022/08/12 01:54:00;;;;;;;11.28;10.23;;;;;;;25.87;55.23;101279.89;1559851;91;21146;-51
2022/08/12 01:56:26;;;;;;;10.60;9.50;;;;;;;25.86;55.29;101275.54;1541813;91;21137;-52
2022/08/12 02:01:40;;;;;;;10.93;9.75;;;;;;;25.84;55.87;101281.00;1607750;88;21050;-55
2022/08/12 02:13:46;;;;;;;10.43;9.43;;;;;;;25.86;55.86;101272.40;1694042;83;21120;-55
2022/08/12 02:16:48;;;;;;;9.85;8.95;;;;;;;25.76;55.22;101260.23;1702380;83;21039;-51
2022/08/12 02:19:43;;;;;;;11.43;9.83;;;;;;;25.76;55.22;101260.23;1703493;83;21538;-54
2022/08/12 02:22:37;;;;;;;10.43;9.43;;;;;;;25.74;55.11;101260.84;1704325;83;21066;-49
2022/08/12 02:25:14;;;;;;;12.13;10.00;;;;;;;25.71;55.12;101262.42;1608087;89;21137;-52
2022/08/12 02:27:44;;;;;;;11.25;10.15;;;;;;;25.67;55.00;101262.77;1609344;88;21525;-49
2022/08/12 02:30:18;;;;;;;9.45;8.45;;;;;;;25.65;54.77;101269.56;1610237;89;21514;-50
2022/08/12 02:32:46;;;;;;;9.58;8.60;;;;;;;25.62;54.69;101274.25;1610139;88;21056;-51
2022/08/12 02:35:22;;;;;;;9.95;8.95;;;;;;;25.56;54.63;101268.91;1654758;85;21002;-51
2022/08/12 02:37:54;;;;;;;9.43;8.63;;;;;;;25.54;54.63;101269.52;1663040;86;21045;-50
2022/08/12 02:40:22;;;;;;;9.93;9.03;;;;;;;25.51;54.36;101268.91;1663003;86;21078;-50
2022/08/12 02:43:02;;;;;;;10.72;9.70;;;;;;;25.51;54.36;101268.91;1663242;86;21549;-53
2022/08/12 02:45:54;;;;;;;10.45;9.20;;;;;;;25.49;54.72;101260.18;1653894;86;21110;-53
2022/08/12 02:48:32;;;;;;;9.65;8.70;;;;;;;25.47;54.76;101255.45;1649322;86;21521;-50
2022/08/12 02:51:04;;;;;;;10.40;9.30;;;;;;;25.49;55.00;101249.02;1563975;91;21573;-52
2022/08/12 02:53:33;;;;;;;16.17;14.47;;;;;;;25.49;55.00;101249.02;1530608;93;21598;-50
2022/08/12 02:58:32;;;;;;;10.55;9.55;;;;;;;25.52;54.93;101251.46;1478453;96;21087;-50
2022/08/12 03:01:02;;;;;;;10.72;9.65;;;;;;;25.53;55.12;101250.48;1479996;97;21081;-52
2022/08/12 03:03:31;;;;;;;11.20;9.08;;;;;;;25.54;55.05;101257.52;1479902;96;21053;-51
2022/08/12 03:06:05;;;;;;;10.82;9.10;;;;;;;25.56;55.34;101248.07;1479815;97;21166;-52
2022/08/12 03:08:42;;;;;;;11.03;9.93;;;;;;;25.55;55.08;101247.25;1472005;97;21106;-52
2022/08/12 03:11:22;;;;;;;10.63;9.60;;;;;;;25.55;55.12;101251.24;1468563;97;21130;-51
2022/08/12 03:13:58;;;;;;;10.13;9.23;;;;;;;25.54;55.28;101250.86;1428151;100;21117;-51
2022/08/12 03:16:26;;;;;;;10.38;9.38;;;;;;;25.53;55.45;101254.48;1427796;100;21862;-52
2022/08/12 03:18:53;;;;;;;10.78;9.70;;;;;;;25.52;55.49;101256.79;1423329;100;21162;-52
2022/08/12 03:21:20;;;;;;;10.80;9.65;;;;;;;25.51;55.69;101252.41;1404541;102;21664;-50
2022/08/12 03:23:47;;;;;;;10.80;9.83;;;;;;;25.50;55.99;101252.06;1404747;102;21162;-51
2022/08/12 03:26:14;;;;;;;10.20;9.30;;;;;;;25.51;56.08;101256.41;1404770;102;21139;-53
2022/08/12 03:28:50;;;;;;;11.03;9.93;;;;;;;25.52;56.04;101254.13;1386511;102;21165;-50
2022/08/12 03:31:28;;;;;;;11.08;9.98;;;;;;;25.51;56.18;101259.07;1418044;101;21153;-50
2022/08/12 03:34:11;;;;;;;10.48;9.58;;;;;;;25.50;56.41;101253.39;1418172;101;21129;-49
2022/08/12 03:36:40;;;;;;;10.48;9.60;;;;;;;25.50;56.38;101256.06;1410293;101;21192;-52
2022/08/12 03:41:57;;;;;;;10.78;9.78;;;;;;;25.49;56.55;101253.02;1436619;99;21116;-52
2022/08/12 04:01:56;;;;;;;10.48;9.53;;;;;;;25.47;57.54;101256.28;1504573;94;21095;-50
2022/08/12 04:04:33;;;;;;;10.20;9.30;;;;;;;25.49;57.88;101243.69;1531391;91;21602;-51
2022/08/12 04:07:07;;;;;;;10.50;9.55;;;;;;;25.49;57.88;101243.69;1556871;91;21192;-49
2022/08/12 04:09:36;;;;;;;10.80;9.80;;;;;;;25.53;57.79;101242.48;1556506;89;21055;-51
2022/08/12 04:14:50;;;;;;;10.82;9.93;;;;;;;25.56;57.90;101242.27;1555520;90;21144;-51
2022/08/12 04:17:18;;;;;;;9.88;9.08;;;;;;;25.58;58.13;101240.33;1571154;91;21080;-52
2022/08/12 04:19:47;;;;;;;10.88;9.75;;;;;;;25.59;57.98;101233.19;1573376;91;21072;-51
2022/08/12 04:22:15;;;;;;;10.05;9.15;;;;;;;25.62;58.06;101243.13;1547157;91;21124;-52
2022/08/12 04:24:43;;;;;;;10.30;9.40;;;;;;;25.66;58.04;101247.73;1573818;90;21081;-49
2022/08/12 04:27:10;;;;;;;10.82;9.73;;;;;;;25.69;58.04;101243.04;1579740;88;21077;-50
2022/08/12 04:29:38;;;;;;;10.93;9.93;;;;;;;25.74;58.07;101246.18;1579592;90;21579;-53
2022/08/12 04:32:05;;;;;;;10.55;9.48;;;;;;;25.82;58.06;101242.95;1579536;90;21558;-52
2022/08/12 04:34:33;;;;;;;10.98;9.53;;;;;;;25.82;58.06;101242.95;1579559;91;21121;-50
2022/08/12 04:36:59;;;;;;;9.75;8.95;;;;;;;25.84;58.45;101239.16;1579524;91;21642;-49
2022/08/12 04:39:26;;;;;;;10.30;9.40;;;;;;;25.84;58.45;101239.16;1611902;87;21118;-49
2022/08/12 04:41:53;;;;;;;10.98;10.08;;;;;;;25.90;58.12;101235.67;1618006;87;21047;-51
2022/08/12 04:44:20;;;;;;;11.38;10.28;;;;;;;25.90;58.12;101235.67;1734733;81;20995;-49
2022/08/12 04:46:46;;;;;;;11.55;10.45;;;;;;;25.96;58.25;101244.52;1733155;81;21058;-49
2022/08/12 04:49:13;;;;;;;10.03;9.23;;;;;;;25.95;58.36;101237.48;1733070;81;20991;-51
2022/08/12 04:51:40;;;;;;;11.30;10.30;;;;;;;25.95;58.36;101237.48;1730566;81;21062;-53
2022/08/12 04:54:06;;;;;;;10.78;9.68;;;;;;;25.95;58.58;101237.48;1733738;82;21007;-49
2022/08/12 04:56:34;;;;;;;10.93;9.78;;;;;;;25.96;58.70;101233.86;1733799;81;20979;-53
2022/08/12 04:59:00;;;;;;;10.28;9.28;;;;;;;25.96;58.81;101235.19;1697560;84;21026;-50
2022/08/12 05:01:29;;;;;;;11.22;10.23;;;;;;;25.95;58.83;101238.34;1696369;84;21491;-49
2022/08/12 05:03:56;;;;;;;12.07;9.98;;;;;;;25.90;58.75;101236.53;1733290;81;21654;-49
2022/08/12 05:06:24;;;;;;;11.30;10.30;;;;;;;25.90;58.75;101236.53;1732471;81;21059;-53
2022/08/12 05:08:59;;;;;;;11.12;9.85;;;;;;;25.84;58.49;101228.50;1732241;81;21019;-50
2022/08/12 05:11:25;;;;;;;10.98;10.08;;;;;;;25.84;58.49;101228.50;1726880;81;21500;-51
2022/08/12 05:13:58;;;;;;;11.70;10.60;;;;;;;25.85;58.77;101233.36;1732351;81;21055;-53
2022/08/12 05:16:25;;;;;;;10.75;9.85;;;;;;;25.83;58.79;101233.48;1732208;81;21067;-52
2022/08/12 05:18:52;;;;;;;10.88;9.88;;;;;;;25.83;58.87;101232.16;1732519;81;21464;-49
2022/08/12 05:21:18;;;;;;;11.10;10.10;;;;;;;25.84;59.02;101230.34;1731927;81;21531;-51
2022/08/12 05:23:45;;;;;;;10.48;9.48;;;;;;;25.84;59.03;101227.67;1732928;81;21026;-50
2022/08/12 05:26:12;;;;;;;11.25;10.15;;;;;;;25.84;59.14;101231.17;1734906;81;21526;-53
2022/08/12 05:28:40;;;;;;;10.60;9.70;;;;;;;25.86;59.39;101228.88;1735761;81;21094;-51
2022/08/12 05:31:06;;;;;;;11.48;9.58;;;;;;;25.91;59.57;101226.69;1735119;81;21090;-49
2022/08/12 05:33:37;;;;;;;11.95;10.95;;;;;;;25.93;59.33;101224.75;1739432;81;21507;-51
2022/08/12 05:36:14;;;;;;;11.40;10.30;;;;;;;25.94;59.32;101225.12;1734884;81;21010;-52
2022/08/12 05:38:56;;;;;;;9.90;9.15;;;;;;;25.97;59.37;101227.54;1731997;81;21558;-52
2022/08/12 05:41:29;;;;;;;10.43;9.58;;;;;;;25.99;59.34;101230.97;1734372;81;21034;-51
2022/08/12 05:44:01;;;;;;;11.53;10.53;;;;;;;25.99;59.43;101230.97;1736461;82;21063;-50
2022/08/12 05:46:29;;;;;;;10.68;9.85;;;;;;;25.98;59.52;101230.11;1641727;86;21070;-52
2022/08/12 05:48:57;;;;;;;11.12;10.00;;;;;;;26.02;59.64;101230.71;1635958;86;21051;-50
2022/08/12 05:51:26;;;;;;;11.28;10.32;;;;;;;26.03;59.53;101232.42;1636123;86;21747;-52
2022/08/12 05:53:53;;;;;;;11.12;10.08;;;;;;;26.06;59.57;101232.16;1634164;87;21027;-51
2022/08/12 05:56:27;;;;;;;10.80;9.95;;;;;;;26.08;59.67;101230.26;1641753;86;21113;-50
2022/08/12 05:58:55;;;;;;;10.95;9.98;;;;;;;26.14;59.46;101235.11;1614507;87;21033;-53
2022/08/12 06:01:23;;;;;;;12.20;10.98;;;;;;;26.14;59.46;101235.11;1614277;87;21553;-49
2022/08/12 06:03:51;;;;;;;13.00;11.93;;;;;;;26.17;59.46;101234.88;1613821;87;21101;-50
2022/08/12 06:06:18;;;;;;;12.65;11.22;;;;;;;26.19;59.29;101235.13;1610667;87;21229;-52
2022/08/12 06:08:52;;;;;;;11.73;10.50;;;;;;;26.19;59.29;101235.13;1614509;87;21129;-50
2022/08/12 06:11:20;;;;;;;11.08;10.18;;;;;;;26.27;59.06;101247.85;1615174;87;21090;-52
2022/08/12 06:13:47;;;;;;;11.48;10.45;;;;;;;26.27;59.06;101247.85;1616881;87;21050;-49
2022/08/12 06:16:16;;;;;;;12.30;11.10;;;;;;;26.30;58.61;101244.45;1617022;87;21135;-51
2022/08/12 06:18:43;;;;;;;12.47;11.38;;;;;;;26.34;58.64;101239.70;1615398;87;21069;-51
2022/08/12 06:21:13;;;;;;;12.70;11.40;;;;;;;26.38;58.72;101233.16;1615140;87;21070;-50
2022/08/12 06:23:40;;;;;;;11.65;10.55;;;;;;;26.45;58.76;101229.03;1615947;88;21037;-53
2022/08/12 06:26:10;;;;;;;11.35;10.35;;;;;;;26.53;58.69;101222.11;1616790;88;21098;-49
2022/08/12 06:28:39;;;;;;;11.22;10.23;;;;;;;26.64;58.32;101219.91;1614904;87;21121;-53
2022/08/12 06:31:05;;;;;;;11.88;10.75;;;;;;;26.72;58.15;101221.50;1598082;88;21631;-49
2022/08/12 06:33:34;;;;;;;11.45;10.48;;;;;;;26.88;57.74;101213.07;1596005;88;21123;-51
2022/08/12 06:36:01;;;;;;;11.00;10.00;;;;;;;26.88;57.74;101213.07;1594199;88;21100;-49
2022/08/12 06:38:30;;;;;;;11.80;10.70;;;;;;;26.99;57.43;101211.23;1593640;88;21629;-51
2022/08/12 06:43:44;;;;;;;11.97;10.88;;;;;;;27.15;56.81;101210.30;1612893;88;21103;-53
2022/08/12 06:46:12;;;;;;;12.10;11.00;;;;;;;27.25;56.48;101211.23;1634590;87;21495;-54
2022/08/12 06:48:41;;;;;;;11.95;10.93;;;;;;;27.37;56.17;101206.22;1636670;87;21124;-55
2022/08/12 06:51:09;;;;;;;12.60;11.60;;;;;;;27.48;55.75;101195.95;1637863;87;21036;-52
2022/08/12 06:53:37;;;;;;;11.85;10.75;;;;;;;27.60;55.57;101200.73;1639243;87;21079;-49
2022/08/12 06:56:05;;;;;;;11.30;10.23;;;;;;;27.70;55.25;101193.64;1655552;86;21075;-51
2022/08/12 06:58:32;;;;;;;12.10;10.90;;;;;;;27.78;55.12;101197.84;1663366;86;21121;-50
2022/08/12 07:00:59;;;;;;;11.70;10.58;;;;;;;27.84;54.86;101195.97;1660714;86;21155;-49
2022/08/12 07:03:27;;;;;;;11.97;10.78;;;;;;;27.90;54.73;101194.91;1661938;86;21063;-54
2022/08/12 07:06:00;;;;;;;12.10;10.90;;;;;;;27.95;54.28;101195.86;1661290;86;21555;-57
2022/08/12 07:08:29;;;;;;;12.47;11.38;;;;;;;27.99;54.00;101194.64;1627948;87;21065;-50
2022/08/12 07:10:59;;;;;;;11.85;10.80;;;;;;;28.00;53.84;101194.53;1628713;88;21026;-51
2022/08/12 07:13:37;;;;;;;11.33;10.32;;;;;;;28.03;53.77;101194.73;1628305;86;21062;-51
2022/08/12 07:16:05;;;;;;;11.15;10.05;;;;;;;28.08;53.42;101197.86;1601689;89;21121;-51
2022/08/12 07:18:33;;;;;;;11.75;10.75;;;;;;;28.14;53.38;101199.52;1588424;90;21161;-50
2022/08/12 07:21:04;;;;;;;12.37;11.35;;;;;;;28.22;53.22;101202.84;1577631;90;21062;-50
2022/08/12 07:23:36;;;;;;;12.37;11.28;;;;;;;28.32;52.93;101197.03;1587851;90;21661;-53
2022/08/12 07:26:05;;;;;;;12.90;11.70;;;;;;;28.40;52.86;101194.52;1588717;90;21089;-51
2022/08/12 07:28:34;;;;;;;12.20;11.03;;;;;;;28.50;52.85;101199.39;1623425;86;21074;-51
2022/08/12 07:31:07;;;;;;;11.60;10.50;;;;;;;28.57;52.49;101193.89;1636262;86;21050;-49
2022/08/12 07:33:39;;;;;;;11.35;10.25;;;;;;;28.63;52.21;101190.66;1635832;86;21045;-53
2022/08/12 07:36:09;;;;;;;11.00;10.10;;;;;;;28.68;52.04;101195.12;1636225;86;21029;-51
2022/08/12 07:38:45;;;;;;;11.70;10.70;;;;;;;28.73;51.90;101194.19;1636221;86;21146;-53
2022/08/12 07:41:20;;;;;;;12.37;11.03;;;;;;;28.80;51.51;101197.17;1636083;86;21505;-50
2022/08/12 07:43:57;;;;;;;12.90;11.70;;;;;;;28.85;51.44;101182.87;1636066;88;21558;-54
2022/08/12 07:46:37;;;;;;;11.70;10.50;;;;;;;28.87;51.63;101185.74;1631843;86;21093;-53
2022/08/12 07:49:10;;;;;;;11.68;10.58;;;;;;;28.90;51.44;101189.50;1632165;86;21530;-52
2022/08/12 07:51:38;;;;;;;11.80;10.68;;;;;;;28.93;51.19;101187.04;1631863;86;21614;-49
2022/08/12 07:54:08;;;;;;;11.12;10.28;;;;;;;28.95;51.06;101181.87;1631918;88;21057;-53
2022/08/12 07:56:35;;;;;;;11.38;10.43;;;;;;;28.98;51.17;101185.63;1631752;86;21141;-52
2022/08/12 07:59:02;;;;;;;12.28;11.18;;;;;;;29.02;51.16;101187.52;1608577;88;21059;-53
2022/08/12 08:01:31;;;;;;;12.35;11.18;;;;;;;29.06;51.18;101184.08;1631954;86;21610;-51
2022/08/12 08:06:43;;;;;;;10.63;9.58;;;;;;;29.12;50.94;101184.86;1642134;86;21084;-53
2022/08/12 08:09:14;;;;;;;12.28;11.20;;;;;;;29.18;50.96;101184.31;1635825;87;21092;-50
2022/08/12 08:14:28;;;;;;;12.00;11.00;;;;;;;29.28;50.18;101180.64;1669875;84;21045;-55
2022/08/12 08:16:56;;;;;;;12.30;11.15;;;;;;;29.36;50.36;101186.63;1667638;86;21120;-49
2022/08/12 08:19:24;;;;;;;12.28;11.08;;;;;;;29.41;50.01;101183.00;1699430;83;21072;-52
2022/08/12 08:21:52;;;;;;;12.03;11.03;;;;;;;29.46;50.38;101185.62;1663444;86;21507;-55
2022/08/12 08:24:23;;;;;;;11.12;10.15;;;;;;;29.50;50.54;101187.02;1695678;84;21074;-51
2022/08/12 08:26:52;;;;;;;11.30;10.20;;;;;;;29.51;50.49;101185.20;1651356;86;21518;-52
2022/08/12 08:29:20;;;;;;;11.20;10.20;;;;;;;29.52;50.10;101184.19;1694688;84;21046;-51
2022/08/12 08:31:53;;;;;;;11.08;10.00;;;;;;;29.51;49.90;101177.15;1647894;86;21543;-50
2022/08/12 08:34:20;;;;;;;12.33;11.03;;;;;;;29.51;49.98;101181.17;1688487;83;21039;-50
2022/08/12 08:36:47;;;;;;;12.23;11.03;;;;;;;29.52;49.85;101177.48;1636605;86;21133;-51
2022/08/12 08:39:20;;;;;;;11.73;10.68;;;;;;;29.52;49.78;101175.66;1689189;83;21098;-51
2022/08/12 08:44:36;;;;;;;12.95;11.85;;;;;;;29.55;49.72;101178.55;1719483;81;21038;-55
2022/08/12 08:47:04;;;;;;;12.50;11.40;;;;;;;29.56;49.45;101180.22;1728439;82;21053;-51
2022/08/12 08:49:30;;;;;;;13.25;11.35;;;;;;;29.57;49.22;101174.70;1728038;81;21050;-50
2022/08/12 08:51:57;;;;;;;14.98;12.05;;;;;;;29.61;49.00;101173.95;1728506;81;21487;-50
2022/08/12 08:54:24;;;;;;;13.10;11.83;;;;;;;29.64;48.90;101177.66;1728397;81;21034;-52
2022/08/12 08:56:51;;;;;;;13.20;12.07;;;;;;;29.67;48.85;101176.05;1722760;81;21105;-53
2022/08/12 08:59:18;;;;;;;14.58;13.15;;;;;;;29.68;48.69;101177.72;1727329;82;21013;-53
2022/08/12 09:01:46;;;;;;;14.20;12.80;;;;;;;29.69;48.74;101178.08;1733508;81;21034;-50
2022/08/12 09:04:13;;;;;;;14.55;13.10;;;;;;;29.70;48.39;101181.09;1730535;81;21006;-50
2022/08/12 09:06:43;;;;;;;14.38;12.95;;;;;;;29.69;48.58;101175.41;1728684;81;21459;-52
2022/08/12 09:09:10;;;;;;;14.90;13.47;;;;;;;29.68;48.56;101179.91;1728692;81;21475;-53
2022/08/12 09:14:23;;;;;;;13.58;12.28;;;;;;;29.65;48.50;101179.37;1726315;82;21541;-52
2022/08/12 09:16:50;;;;;;;14.75;12.33;;;;;;;29.63;48.66;101178.67;1733947;81;21042;-48
2022/08/12 09:19:17;;;;;;;13.05;11.95;;;;;;;29.64;49.01;101180.34;1729997;81;21490;-49
2022/08/12 09:21:46;;;;;;;14.83;13.32;;;;;;;29.65;49.39;101182.05;1728143;81;21507;-52
2022/08/12 09:24:18;;;;;;;13.85;12.47;;;;;;;29.65;49.39;101178.88;1728165;81;21042;-51
2022/08/12 09:26:45;;;;;;;15.85;14.25;;;;;;;29.68;49.65;101180.40;1700462;82;21086;-52
2022/08/12 09:29:14;;;;;;;16.12;14.53;;;;;;;29.67;49.83;101182.27;1693867;82;21018;-52
2022/08/12 09:31:41;;;;;;;15.05;13.65;;;;;;;29.69;50.16;101182.11;1695778;82;21486;-49
2022/08/12 09:34:09;;;;;;;15.32;13.93;;;;;;;29.70;50.20;101174.39;1697947;82;21546;-52
2022/08/12 09:36:37;;;;;;;15.05;13.70;;;;;;;29.74;50.18;101183.88;1698400;82;21010;-49
2022/08/12 09:39:06;;;;;;;15.40;13.90;;;;;;;29.80;50.28;101176.58;1697738;82;21014;-50
2022/08/12 09:41:40;;;;;;;15.08;13.65;;;;;;;29.88;50.12;101182.09;1701880;82;21014;-51
2022/08/12 09:46:53;;;;;;;16.30;14.65;;;;;;;30.00;50.20;101182.25;1713810;82;21030;-52
2022/08/12 09:51:48;;;;;;;14.53;13.38;;;;;;;30.11;50.02;101183.38;1612010;87;21015;-52
2022/08/12 09:54:16;;;;;;;15.63;14.07;;;;;;;30.15;50.19;101171.34;1622648;87;21107;-49
2022/08/12 09:56:46;;;;;;;16.85;15.25;;;;;;;30.19;50.21;101166.03;1622524;88;21098;-51
2022/08/12 09:59:14;;;;;;;16.97;15.48;;;;;;;30.25;50.15;101160.58;1622553;88;21070;-52
2022/08/12 10:01:41;;;;;;;17.90;16.05;;;;;;;30.31;50.37;101163.55;1622536;87;21116;-49
2022/08/12 10:04:09;;;;;;;18.12;16.42;;;;;;;30.39;50.16;101160.10;1622566;87;21070;-52
2022/08/12 10:06:37;;;;;;;18.35;16.62;;;;;;;30.48;49.64;101165.41;1622401;88;21063;-49
2022/08/12 10:09:05;;;;;;;16.82;15.38;;;;;;;30.56;49.35;101170.53;1622670;87;21078;-49
2022/08/12 10:14:18;;;;;;;17.62;15.88;;;;;;;30.60;48.57;101165.20;1622603;88;21099;-53
2022/08/12 10:16:44;;;;;;;16.85;15.20;;;;;;;30.61;48.66;101157.47;1622453;88;21527;-51
2022/08/12 10:21:40;;;;;;;16.37;14.83;;;;;;;30.66;49.32;101147.12;1565241;91;21081;-49
2022/08/12 10:24:10;;;;;;;16.23;14.75;;;;;;;30.71;48.85;101147.53;1563509;91;21074;-51
2022/08/12 10:29:38;;;;;;;16.48;15.05;;;;;;;30.83;48.64;101141.74;1528988;93;21662;-51
2022/08/12 10:32:05;;;;;;;17.95;16.15;;;;;;;30.91;48.44;101139.19;1505016;94;21143;-52
2022/08/12 10:34:32;;;;;;;17.07;15.43;;;;;;;30.97;48.24;101135.03;1505728;95;21110;-52
2022/08/12 10:37:00;;;;;;;18.75;16.80;;;;;;;31.02;48.83;101135.39;1503851;95;21130;-51
2022/08/12 10:39:35;;;;;;;16.70;15.25;;;;;;;31.05;49.05;101133.25;1506980;92;21183;-49
2022/08/12 10:44:59;;;;;;;16.80;15.28;;;;;;;31.11;48.97;101135.81;1541690;92;21107;-53
2022/08/12 10:47:22;;;;;;;16.95;15.30;;;;;;;31.12;48.74;101130.77;1539337;92;21039;-52
2022/08/12 10:49:49;;;;;;;17.80;16.20;;;;;;;31.15;48.49;101131.81;1579826;90;21073;-53
2022/08/12 10:52:17;;;;;;;16.85;15.35;;;;;;;31.18;48.18;101123.45;1581626;91;21097;-50
2022/08/12 10:54:45;;;;;;;16.95;15.50;;;;;;;31.21;47.60;101129.84;1583628;90;21081;-51
2022/08/12 10:57:12;;;;;;;17.10;15.58;;;;;;;31.22;47.53;101122.13;1581547;91;21592;-49
2022/08/12 10:59:38;;;;;;;19.15;15.88;;;;;;;31.22;47.58;101121.61;1581504;91;21058;-51
2022/08/12 11:02:07;;;;;;;17.95;16.12;;;;;;;31.24;47.53;101123.63;1581846;91;21078;-50
2022/08/12 11:04:34;;;;;;;17.95;16.15;;;;;;;31.26;47.59;101114.91;1581596;91;21144;-51
2022/08/12 11:07:02;;;;;;;17.37;15.95;;;;;;;31.28;47.79;101122.31;1581827;90;21045;-50
2022/08/12 11:09:32;;;;;;;18.92;16.95;;;;;;;31.28;48.13;101112.91;1581734;91;21116;-51
2022/08/12 11:12:05;;;;;;;17.93;16.33;;;;;;;31.28;48.24;101120.16;1581794;91;21064;-49
2022/08/12 11:14:33;;;;;;;18.48;16.75;;;;;;;31.27;48.12;101117.11;1581705;91;21314;-56
2022/08/12 11:17:06;;;;;;;18.98;17.23;;;;;;;31.27;47.92;101123.83;1576768;91;21098;-49
2022/08/12 11:19:35;;;;;;;19.35;17.45;;;;;;;31.27;47.81;101118.45;1581720;91;21053;-51
2022/08/12 11:22:03;;;;;;;20.40;18.50;;;;;;;31.30;47.78;101118.15;1581741;91;21048;-49
2022/08/12 11:24:30;;;;;;;19.85;18.15;;;;;;;31.29;47.56;101115.95;1641887;82;21062;-52
2022/08/12 11:26:58;;;;;;;19.98;18.17;;;;;;;31.30;47.94;101115.46;1713934;82;21518;-53
2022/08/12 11:29:26;;;;;;;20.08;17.98;;;;;;;31.33;48.46;101116.47;1722880;81;21034;-55
2022/08/12 11:31:54;;;;;;;18.20;16.70;;;;;;;31.36;48.13;101120.20;1737603;81;21019;-53
2022/08/12 11:34:20;;;;;;;19.95;18.15;;;;;;;31.39;47.00;101105.61;1738947;81;21471;-50
2022/08/12 11:36:59;;;;;;;20.20;17.92;;;;;;;31.43;47.30;101104.31;1732222;81;20988;-50
2022/08/12 11:39:26;;;;;;;20.23;18.32;;;;;;;31.44;46.65;101101.46;1730429;81;21122;-55
2022/08/12 11:41:53;;;;;;;19.95;18.15;;;;;;;31.47;47.04;101102.47;1732284;81;21133;-51
2022/08/12 11:44:19;;;;;;;19.73;17.77;;;;;;;31.51;46.80;101099.80;1731474;81;21039;-50
2022/08/12 11:46:46;;;;;;;19.65;17.75;;;;;;;31.55;46.22;101101.17;1731136;81;21027;-50
2022/08/12 11:49:13;;;;;;;19.10;17.15;;;;;;;31.57;46.08;101103.23;1733310;81;21027;-51
2022/08/12 11:51:40;;;;;;;19.85;17.90;;;;;;;31.58;46.13;101095.48;1735819;81;21070;-48
2022/08/12 11:54:07;;;;;;;18.20;16.50;;;;;;;31.59;46.06;101090.46;1735069;81;21424;-49
2022/08/12 11:56:35;;;;;;;20.02;18.02;;;;;;;31.61;46.33;101089.80;1733375;81;21649;-54
2022/08/12 11:59:02;;;;;;;18.57;16.82;;;;;;;31.64;46.03;101081.39;1733837;81;21015;-53
2022/08/12 12:01:29;;;;;;;17.37;15.95;;;;;;;31.68;46.72;101076.02;1733603;82;21105;-51
2022/08/12 12:03:56;;;;;;;18.40;16.75;;;;;;;31.72;47.18;101076.04;1733827;81;21038;-48
2022/08/12 12:06:23;;;;;;;18.02;16.50;;;;;;;31.80;46.74;101077.42;1734578;81;21012;-53
2022/08/12 12:08:50;;;;;;;20.40;17.17;;;;;;;31.86;46.48;101068.70;1730750;81;21028;-53
2022/08/12 12:11:17;;;;;;;17.80;16.15;;;;;;;31.91;46.11;101067.72;1731466;81;21069;-49
2022/08/12 12:13:43;;;;;;;18.87;17.05;;;;;;;31.96;46.02;101067.27;1731695;81;21043;-52
2022/08/12 12:16:10;;;;;;;19.27;17.35;;;;;;;32.00;46.15;101068.63;1730368;81;21023;-49
2022/08/12 12:18:38;;;;;;;19.23;17.23;;;;;;;32.01;46.27;101057.69;1733929;81;21027;-49
2022/08/12 12:21:06;;;;;;;17.85;16.20;;;;;;;32.02;45.99;101061.23;1732979;82;21035;-52
2022/08/12 12:23:33;;;;;;;17.50;15.70;;;;;;;32.02;46.13;101059.39;1737484;81;21019;-51
2022/08/12 12:26:04;;;;;;;17.80;16.32;;;;;;;32.05;45.82;101056.34;1730597;81;21034;-56
2022/08/12 12:28:33;;;;;;;18.50;16.65;;;;;;;32.07;45.73;101046.25;1721482;81;20994;-53
2022/08/12 12:31:00;;;;;;;17.80;16.10;;;;;;;32.09;46.08;101041.55;1736162;82;21018;-49
2022/08/12 12:33:26;;;;;;;17.77;15.98;;;;;;;32.14;45.96;101037.52;1736141;81;21062;-49
2022/08/12 12:35:53;;;;;;;17.75;16.10;;;;;;;32.17;45.29;101038.55;1733017;81;21035;-50
2022/08/12 12:38:20;;;;;;;17.85;15.90;;;;;;;32.16;44.92;101039.05;1731035;81;21015;-54
2022/08/12 12:40:47;;;;;;;18.95;17.07;;;;;;;32.14;44.78;101037.52;1731868;81;21016;-51
2022/08/12 12:43:14;;;;;;;17.40;15.60;;;;;;;32.13;45.08;101035.85;1721564;81;21536;-53
2022/08/12 12:45:43;;;;;;;19.35;17.27;;;;;;;32.11;45.38;101031.13;1729514;81;21007;-54
2022/08/12 12:48:14;;;;;;;18.52;16.65;;;;;;;32.06;45.81;101025.74;1731605;81;21657;-53
2022/08/12 12:53:37;;;;;;;18.75;16.07;;;;;;;31.99;45.55;101020.67;1730358;82;21059;-50
2022/08/12 12:56:04;;;;;;;16.82;15.25;;;;;;;31.99;45.87;101017.97;1722545;81;21046;-53
2022/08/12 12:58:32;;;;;;;16.97;15.32;;;;;;;31.99;46.24;101013.94;1733629;81;21471;-56
2022/08/12 13:01:00;;;;;;;17.00;15.50;;;;;;;32.03;46.00;101012.59;1735434;81;21059;-49
2022/08/12 13:03:27;;;;;;;16.67;15.10;;;;;;;32.07;46.46;101007.22;1734814;81;21007;-51
2022/08/12 13:05:59;;;;;;;17.42;15.75;;;;;;;32.13;46.59;101006.23;1732256;81;22683;-51
2022/08/12 13:08:25;;;;;;;17.70;15.48;;;;;;;32.19;45.32;101001.53;1731827;81;21011;-52
2022/08/12 13:10:54;;;;;;;16.70;15.03;;;;;;;32.24;45.20;101000.50;1734163;82;21451;-53
2022/08/12 13:13:21;;;;;;;17.42;15.70;;;;;;;32.29;45.45;101003.56;1692576;84;21011;-49
2022/08/12 13:15:49;;;;;;;17.67;15.90;;;;;;;32.31;45.71;101000.19;1687295;83;21043;-50
2022/08/12 13:18:19;;;;;;;17.10;15.35;;;;;;;32.34;45.83;100998.49;1692291;84;21093;-49
2022/08/12 13:20:46;;;;;;;20.27;14.95;;;;;;;32.33;45.51;100999.52;1691799;84;21487;-50
2022/08/12 13:23:16;;;;;;;17.42;15.65;;;;;;;32.32;45.65;101006.75;1693052;84;21048;-52
2022/08/12 13:25:43;;;;;;;16.48;14.87;;;;;;;32.32;45.80;100997.81;1694948;84;21536;-51
2022/08/12 13:28:22;;;;;;;15.58;14.28;;;;;;;32.34;45.84;101006.08;1690801;84;21077;-56